Time;durP1;ratioP1;P1;durP2;ratioP2;P2;SDS_P1;SDS_P2;PMS_P1;PMS_P2;Temp;Humidity;BMP_temperature;BMP_pressure;BME280_temperature;BME280_humidity;BME280_pressure;Samples;Min_cycle;Max_cycle;Signal;HPM_P1;HPM_P2
2022/06/23 00:02:10;;;;;;;11.85;7.10;;;;;;;12.65;100.00;98544.05;2034715;87;21080;-85
2022/06/23 00:05:11;;;;;;;7.60;6.78;;;;;;;12.68;100.00;98540.20;2050179;85;21132;-85
2022/06/23 00:08:12;;;;;;;8.78;6.72;;;;;;;12.65;100.00;98543.23;2047196;85;21565;-84
2022/06/23 00:11:12;;;;;;;8.73;6.03;;;;;;;12.64;100.00;98536.36;2053605;86;21049;-85
2022/06/23 00:14:13;;;;;;;7.62;6.35;;;;;;;12.65;100.00;98538.79;2050959;86;21012;-84
2022/06/23 00:17:14;;;;;;;10.10;6.62;;;;;;;12.65;100.00;98545.86;2053121;85;21123;-84
2022/06/23 00:20:14;;;;;;;7.78;7.00;;;;;;;12.62;100.00;98540.50;2044010;86;21509;-84
2022/06/23 00:23:15;;;;;;;9.43;7.40;;;;;;;12.59;100.00;98531.69;2052888;85;21053;-84
2022/06/23 00:26:16;;;;;;;10.35;7.58;;;;;;;12.55;100.00;98539.66;2049203;86;21060;-84
2022/06/23 00:29:18;;;;;;;8.88;7.25;;;;;;;12.52;100.00;98540.84;2050126;85;21514;-84
2022/06/23 00:32:19;;;;;;;9.55;6.55;;;;;;;12.49;100.00;98543.88;2011109;86;21675;-84
2022/06/23 00:35:19;;;;;;;9.50;6.58;;;;;;;12.46;100.00;98540.84;2009533;88;21041;-83
2022/06/23 00:38:20;;;;;;;9.20;7.25;;;;;;;12.44;100.00;98542.86;2000523;88;21096;-84
2022/06/23 00:41:21;;;;;;;8.73;7.00;;;;;;;12.43;100.00;98538.08;2039464;86;21056;-83
2022/06/23 00:44:21;;;;;;;12.95;7.25;;;;;;;12.40;100.00;98538.48;2028087;86;21037;-84
2022/06/23 00:47:22;;;;;;;8.30;7.30;;;;;;;12.40;100.00;98539.79;2046058;85;21115;-84
2022/06/23 00:50:23;;;;;;;10.40;7.72;;;;;;;12.37;100.00;98540.19;2049404;86;21013;-84
2022/06/23 00:53:24;;;;;;;8.55;7.70;;;;;;;12.31;100.00;98547.52;2089691;84;21104;-84
2022/06/23 00:56:25;;;;;;;8.30;7.47;;;;;;;12.29;100.00;98546.91;2087968;84;21064;-84
2022/06/23 00:59:25;;;;;;;10.13;7.78;;;;;;;12.24;100.00;98550.10;2076741;84;20993;-84
2022/06/23 01:02:26;;;;;;;11.85;9.13;;;;;;;12.24;100.00;98546.67;2073481;85;21017;-84
2022/06/23 01:05:27;;;;;;;10.65;8.08;;;;;;;12.22;100.00;98551.31;2073470;85;21033;-85
2022/06/23 01:08:28;;;;;;;12.13;9.25;;;;;;;12.17;100.00;98551.91;2074163;85;21624;-85
2022/06/23 01:11:29;;;;;;;11.68;7.97;;;;;;;12.07;100.00;98544.89;2074846;85;21188;-84
2022/06/23 01:14:30;;;;;;;14.75;7.92;;;;;;;12.00;100.00;98549.28;2088258;84;21600;-85
2022/06/23 01:17:31;;;;;;;10.70;8.05;;;;;;;11.97;100.00;98540.45;2095317;85;21084;-84
2022/06/23 01:20:31;;;;;;;10.23;8.70;;;;;;;11.95;100.00;98544.59;2091392;84;21508;-84
2022/06/23 01:23:32;;;;;;;11.15;8.35;;;;;;;11.94;100.00;98537.73;2093847;84;21064;-84
2022/06/23 01:26:33;;;;;;;10.78;7.90;;;;;;;11.93;100.00;98537.92;2081006;84;21041;-84
2022/06/23 01:29:33;;;;;;;9.00;7.83;;;;;;;11.90;100.00;98537.81;2092883;83;21124;-84
2022/06/23 01:32:34;;;;;;;11.38;7.58;;;;;;;11.89;100.00;98539.33;2095544;84;21060;-85
2022/06/23 01:35:35;;;;;;;11.65;7.80;;;;;;;11.85;100.00;98538.88;2085850;84;21511;-84
2022/06/23 01:38:36;;;;;;;8.35;6.90;;;;;;;11.85;100.00;98542.00;2098261;84;22186;-84
2022/06/23 01:41:36;;;;;;;15.03;8.88;;;;;;;11.86;100.00;98548.36;2088515;84;21096;-84
2022/06/23 01:44:37;;;;;;;12.88;7.42;;;;;;;11.85;100.00;98546.75;2079403;85;21037;-85
2022/06/23 01:47:38;;;;;;;9.18;8.35;;;;;;;11.79;100.00;98551.91;2078226;85;21033;-84
2022/06/23 01:50:39;;;;;;;10.85;8.53;;;;;;;11.70;100.00;98551.23;2075659;84;21093;-85
2022/06/23 01:53:40;;;;;;;8.65;7.72;;;;;;;11.67;100.00;98555.06;2071405;85;21009;-84
2022/06/23 01:56:40;;;;;;;8.75;7.85;;;;;;;11.63;100.00;98556.45;2071102;85;21105;-84
2022/06/23 01:59:41;;;;;;;10.13;7.95;;;;;;;11.64;100.00;98559.88;2084579;85;20989;-84
2022/06/23 02:02:42;;;;;;;9.93;8.50;;;;;;;11.64;100.00;98568.56;2070566;85;21029;-85
2022/06/23 02:05:43;;;;;;;12.73;9.13;;;;;;;11.65;100.00;98562.31;2076526;85;21020;-85
2022/06/23 02:08:43;;;;;;;12.40;9.83;;;;;;;11.67;100.00;98560.30;2079025;85;21017;-85
2022/06/23 02:11:45;;;;;;;14.30;11.80;;;;;;;11.66;100.00;98565.24;2073866;85;21045;-85
2022/06/23 02:14:45;;;;;;;12.65;9.63;;;;;;;11.62;100.00;98562.70;2100790;84;21029;-85
2022/06/23 02:17:47;;;;;;;19.05;12.75;;;;;;;11.58;100.00;98568.00;2090713;84;21204;-85
2022/06/23 02:20:48;;;;;;;19.65;12.98;;;;;;;11.57;100.00;98569.50;2079816;84;21105;-85
2022/06/23 02:23:48;;;;;;;23.00;14.15;;;;;;;11.56;100.00;98572.62;2089333;84;21016;-85
2022/06/23 02:26:49;;;;;;;19.85;13.38;;;;;;;11.55;100.00;98571.51;2080764;84;20985;-83
2022/06/23 02:29:50;;;;;;;27.17;17.35;;;;;;;11.54;100.00;98572.52;2078920;84;22078;-83
2022/06/23 02:32:51;;;;;;;18.57;12.20;;;;;;;11.45;100.00;98572.33;2069765;84;21534;-84
2022/06/23 02:35:51;;;;;;;14.03;9.88;;;;;;;11.36;100.00;98577.70;2072394;84;20994;-85
2022/06/23 02:38:52;;;;;;;12.63;9.00;;;;;;;11.36;100.00;98577.70;2080450;84;21928;-84
2022/06/23 02:41:53;;;;;;;9.30;8.03;;;;;;;11.36;100.00;98581.63;2099562;84;21125;-84
2022/06/23 02:44:55;;;;;;;12.93;9.60;;;;;;;11.37;100.00;98587.69;2112977;84;21058;-83
2022/06/23 02:47:56;;;;;;;9.25;8.38;;;;;;;11.40;100.00;98589.42;2071928;84;21069;-85
2022/06/23 02:50:58;;;;;;;10.85;7.55;;;;;;;11.40;100.00;98595.97;2064577;84;21085;-84
2022/06/23 02:53:58;;;;;;;11.30;8.63;;;;;;;11.30;100.00;98606.46;2071347;84;21604;-85
2022/06/23 02:56:59;;;;;;;10.43;8.53;;;;;;;11.23;100.00;98610.81;2069589;84;20997;-84
2022/06/23 03:00:00;;;;;;;12.00;8.60;;;;;;;11.46;100.00;98610.16;2090917;84;22189;-84
2022/06/23 03:03:01;;;;;;;12.15;8.43;;;;;;;11.89;100.00;98604.91;2085375;84;21115;-85
2022/06/23 03:06:01;;;;;;;14.43;8.28;;;;;;;12.44;100.00;98594.06;2086662;84;21088;-84
2022/06/23 03:09:02;;;;;;;13.43;8.68;;;;;;;13.02;100.00;98606.31;2094862;84;21057;-86
2022/06/23 03:12:03;;;;;;;9.78;7.37;;;;;;;13.69;100.00;98604.13;2097569;84;21128;-84
2022/06/23 03:15:03;;;;;;;7.90;7.12;;;;;;;14.35;100.00;98602.75;2074027;84;21532;-89
2022/06/23 03:18:04;;;;;;;7.58;6.80;;;;;;;14.98;100.00;98605.59;2091856;84;21124;-86
2022/06/23 03:21:05;;;;;;;10.03;6.17;;;;;;;15.73;100.00;98611.08;2089783;84;21036;-86
2022/06/23 03:24:05;;;;;;;8.78;6.42;;;;;;;16.44;100.00;98616.41;2073282;84;21064;-86
2022/06/23 03:27:06;;;;;;;9.10;6.95;;;;;;;16.95;100.00;98623.19;2082113;84;21048;-85
2022/06/23 03:30:07;;;;;;;13.08;7.25;;;;;;;17.58;100.00;98618.77;2095832;84;21531;-86
2022/06/23 03:33:07;;;;;;;9.83;5.95;;;;;;;18.26;100.00;98630.72;2101020;85;21040;-85
2022/06/23 03:36:08;;;;;;;15.28;6.53;;;;;;;18.87;100.00;98629.41;2089342;85;21093;-86
2022/06/23 03:42:28;;;;;;;8.75;5.53;;;;;;;20.09;100.00;98628.39;2100874;85;21136;-86
2022/06/23 03:45:29;;;;;;;9.75;5.37;;;;;;;20.84;98.60;98625.70;2092751;84;21166;-86
2022/06/23 03:48:29;;;;;;;5.37;4.87;;;;;;;21.44;90.49;98633.31;2079891;85;21026;-85
2022/06/23 03:51:30;;;;;;;6.92;5.08;;;;;;;22.03;85.96;98630.08;2085589;84;21056;-85
2022/06/23 03:54:31;;;;;;;6.72;4.72;;;;;;;22.29;77.72;98634.28;2074950;84;21054;-84
2022/06/23 03:57:32;;;;;;;7.17;5.20;;;;;;;21.66;71.31;98635.91;2068881;84;20989;-84
2022/06/23 04:00:33;;;;;;;6.92;5.80;;;;;;;21.55;73.22;98634.48;2089475;84;21782;-85
2022/06/23 04:03:34;;;;;;;8.10;5.15;;;;;;;22.20;72.43;98642.49;2072421;84;21043;-85
2022/06/23 04:06:34;;;;;;;7.87;5.90;;;;;;;23.06;69.92;98642.97;2070689;84;21068;-85
2022/06/23 04:09:35;;;;;;;8.85;5.50;;;;;;;23.74;66.24;98640.98;2078239;84;21607;-85
2022/06/23 04:12:36;;;;;;;5.40;5.05;;;;;;;24.09;63.96;98646.86;2083864;84;21139;-85
2022/06/23 04:15:36;;;;;;;6.05;5.17;;;;;;;24.37;58.97;98655.41;2078323;84;21059;-85
2022/06/23 04:18:38;;;;;;;6.15;5.53;;;;;;;24.16;59.70;98656.49;2100306;85;20997;-85
2022/06/23 04:21:39;;;;;;;5.83;5.22;;;;;;;24.76;58.91;98658.25;2101430;85;21165;-86
2022/06/23 04:24:39;;;;;;;6.60;6.10;;;;;;;25.53;56.97;98661.39;2089417;85;21521;-86
2022/06/23 04:27:40;;;;;;;6.80;5.67;;;;;;;26.22;54.26;98664.35;2091407;84;21132;-86
2022/06/23 04:30:41;;;;;;;5.85;5.25;;;;;;;26.80;53.15;98674.27;2075676;85;21561;-85
2022/06/23 04:33:43;;;;;;;8.55;5.42;;;;;;;27.49;51.49;98685.75;2091034;84;21055;-86
2022/06/23 04:36:44;;;;;;;5.90;5.30;;;;;;;28.19;49.61;98690.36;2076347;84;21135;-86
2022/06/23 04:39:44;;;;;;;5.83;5.33;;;;;;;28.73;47.96;98684.03;2067368;85;21108;-86
2022/06/23 04:42:45;;;;;;;8.15;6.20;;;;;;;29.25;45.97;98694.04;2073415;84;21006;-86
2022/06/23 04:45:45;;;;;;;6.47;5.85;;;;;;;29.73;44.39;98705.95;2088835;84;21025;-85
2022/06/23 04:48:46;;;;;;;7.78;7.10;;;;;;;29.85;42.15;98704.05;2072491;84;21584;-85
2022/06/23 04:51:47;;;;;;;8.95;8.15;;;;;;;30.25;41.70;98702.83;2084622;84;21058;-85
2022/06/23 04:54:47;;;;;;;9.28;8.30;;;;;;;30.69;40.44;98717.39;2098119;84;21055;-85
2022/06/23 04:57:48;;;;;;;11.00;10.00;;;;;;;31.07;39.51;98717.67;2070755;84;21097;-86
2022/06/23 05:00:49;;;;;;;11.00;10.00;;;;;;;31.54;38.83;98721.44;2081177;84;21508;-85
2022/06/23 05:03:50;;;;;;;12.05;10.32;;;;;;;31.98;37.70;98727.69;2035742;86;22143;-86
2022/06/23 05:06:50;;;;;;;8.18;7.45;;;;;;;32.25;35.77;98730.59;2078150;84;21112;-85
2022/06/23 05:09:51;;;;;;;8.35;7.53;;;;;;;32.05;34.14;98734.77;2062867;84;20988;-85
2022/06/23 05:12:52;;;;;;;4.03;3.72;;;;;;;31.58;34.00;98729.73;2069416;84;21060;-86
2022/06/23 05:15:52;;;;;;;5.37;4.47;;;;;;;31.39;32.78;98735.45;2069748;84;21123;-86
2022/06/23 05:19:14;;;;;;;4.70;3.45;;;;;;;31.01;32.82;98731.11;2068856;85;21065;-86
2022/06/23 05:21:57;;;;;;;8.93;5.55;;;;;;;30.55;32.44;98737.17;2057227;86;21086;-85
2022/06/23 05:24:58;;;;;;;5.72;5.22;;;;;;;30.41;33.85;98735.09;2063950;84;21532;-86
2022/06/23 05:27:58;;;;;;;5.65;4.87;;;;;;;30.19;33.67;98744.58;2079929;85;21144;-87
2022/06/23 05:30:59;;;;;;;3.45;3.25;;;;;;;29.86;33.33;98749.37;2070150;84;21005;-85
2022/06/23 05:34:00;;;;;;;8.85;4.08;;;;;;;29.11;33.28;98753.38;2039820;85;21566;-86
2022/06/23 05:37:01;;;;;;;4.60;4.20;;;;;;;28.52;34.22;98757.10;2056972;85;21051;-86
2022/06/23 05:40:02;;;;;;;7.58;4.67;;;;;;;28.18;35.09;98761.98;2049219;85;20989;-84
2022/06/23 05:43:02;;;;;;;6.45;4.25;;;;;;;28.11;35.66;98757.51;2094596;84;21042;-84
2022/06/23 05:46:03;;;;;;;4.53;3.40;;;;;;;27.82;35.72;98762.52;2055623;85;21099;-84
2022/06/23 05:49:03;;;;;;;5.05;4.05;;;;;;;27.19;35.72;98756.05;2025376;86;21139;-84
2022/06/23 05:52:04;;;;;;;3.17;2.80;;;;;;;26.98;36.20;98759.48;2088505;84;21112;-84
2022/06/23 05:55:05;;;;;;;5.87;4.58;;;;;;;26.51;36.54;98758.86;2085489;85;21024;-84
2022/06/23 05:58:06;;;;;;;4.83;3.92;;;;;;;26.03;38.26;98758.14;2087313;84;21159;-84
2022/06/23 06:01:07;;;;;;;5.03;3.30;;;;;;;26.11;39.49;98757.29;2083265;84;21053;-85
2022/06/23 06:04:08;;;;;;;3.10;2.90;;;;;;;26.00;39.20;98757.91;2088935;84;21077;-85
2022/06/23 06:07:08;;;;;;;5.95;3.72;;;;;;;26.03;39.07;98760.83;2052990;84;21539;-84
2022/06/23 06:10:09;;;;;;;4.50;3.77;;;;;;;25.68;39.82;98765.83;2090311;84;21064;-84
2022/06/23 06:13:10;;;;;;;3.92;3.35;;;;;;;25.32;40.75;98766.54;2093629;84;21049;-86
2022/06/23 06:16:10;;;;;;;4.33;3.87;;;;;;;25.24;41.06;98763.91;2091262;84;21575;-83
2022/06/23 06:19:11;;;;;;;3.12;2.83;;;;;;;24.94;41.92;98767.44;2088423;85;21015;-84
2022/06/23 06:22:12;;;;;;;3.62;3.42;;;;;;;24.74;42.43;98765.34;2097997;84;21122;-85
2022/06/23 06:25:12;;;;;;;4.95;3.70;;;;;;;24.55;43.30;98775.81;2052198;85;21585;-84
2022/06/23 06:28:13;;;;;;;4.30;3.30;;;;;;;24.63;43.81;98777.95;2080788;85;21057;-84
2022/06/23 06:31:14;;;;;;;9.18;3.27;;;;;;;24.47;44.05;98789.19;2077047;84;21089;-85
2022/06/23 06:34:14;;;;;;;3.70;2.80;;;;;;;24.44;44.65;98785.72;2080725;85;21101;-84
2022/06/23 06:37:15;;;;;;;3.27;2.98;;;;;;;24.64;45.33;98784.91;2070806;85;21023;-84
2022/06/23 06:40:16;;;;;;;3.02;2.77;;;;;;;24.63;44.91;98794.81;2100716;84;21047;-85
2022/06/23 06:43:17;;;;;;;2.55;2.35;;;;;;;24.54;44.94;98788.92;2042476;85;21832;-84
2022/06/23 06:46:17;;;;;;;2.90;2.80;;;;;;;24.43;44.50;98794.02;2024788;87;21045;-85
2022/06/23 06:49:18;;;;;;;1.72;1.67;;;;;;;24.33;44.80;98796.16;2090931;85;21062;-84
2022/06/23 06:52:19;;;;;;;3.92;2.20;;;;;;;24.44;43.64;98797.77;2101911;85;21190;-82
2022/06/23 06:55:22;;;;;;;3.12;2.10;;;;;;;24.40;44.27;98799.35;2068990;84;21514;-82
2022/06/23 06:58:23;;;;;;;2.55;2.35;;;;;;;24.47;44.79;98796.42;2073574;84;21078;-84
2022/06/23 07:01:24;;;;;;;2.35;2.15;;;;;;;24.35;43.93;98801.50;2086853;84;21102;-85
2022/06/23 07:04:25;;;;;;;2.15;2.05;;;;;;;24.18;43.87;98798.25;2096113;84;21557;-84
2022/06/23 07:07:25;;;;;;;1.87;1.77;;;;;;;24.09;43.98;98807.86;2101426;85;21508;-85
2022/06/23 07:10:26;;;;;;;2.37;1.87;;;;;;;23.95;43.33;98801.41;2101564;85;21062;-87
2022/06/23 07:13:30;;;;;;;2.55;2.05;;;;;;;23.78;43.41;98801.12;2094998;84;21078;-84
2022/06/23 07:16:30;;;;;;;3.30;2.12;;;;;;;23.65;43.33;98803.47;2087010;84;21030;-84
2022/06/23 07:19:31;;;;;;;2.08;1.77;;;;;;;23.59;43.39;98808.48;2085718;84;21046;-84
2022/06/23 07:22:32;;;;;;;2.55;2.35;;;;;;;23.48;44.12;98804.97;2094340;84;21122;-86
2022/06/23 07:25:32;;;;;;;1.90;1.67;;;;;;;23.51;44.16;98805.81;2082105;84;21045;-85
2022/06/23 07:28:33;;;;;;;2.25;1.60;;;;;;;23.45;43.72;98809.52;2076235;84;21059;-86
2022/06/23 07:31:34;;;;;;;8.68;2.58;;;;;;;23.39;44.43;98819.36;2087728;84;21070;-84
2022/06/23 07:34:34;;;;;;;1.90;1.75;;;;;;;23.32;43.87;98813.47;2092859;84;21076;-84
2022/06/23 07:37:35;;;;;;;1.67;1.57;;;;;;;23.28;44.14;98809.70;2089316;84;21022;-87
2022/06/23 07:40:36;;;;;;;1.95;1.57;;;;;;;23.32;44.31;98815.31;2068888;84;21109;-86
2022/06/23 07:43:36;;;;;;;3.52;1.85;;;;;;;23.24;43.69;98818.77;2094836;84;21054;-88
2022/06/23 07:46:37;;;;;;;3.10;1.87;;;;;;;23.16;44.46;98818.45;2099658;85;21051;-84
2022/06/23 07:49:38;;;;;;;2.47;2.27;;;;;;;23.18;44.00;98823.80;2091058;84;21049;-85
2022/06/23 07:52:42;;;;;;;2.27;2.00;;;;;;;23.18;44.29;98824.34;2086110;84;21062;-83
2022/06/23 07:55:41;;;;;;;1.72;1.62;;;;;;;23.17;44.86;98824.06;2078850;84;21174;-85
2022/06/23 07:58:42;;;;;;;3.47;2.15;;;;;;;23.23;45.21;98823.05;2074156;84;21065;-84
2022/06/23 08:01:43;;;;;;;1.98;1.85;;;;;;;23.32;45.13;98830.00;2089037;84;21554;-84
2022/06/23 08:04:44;;;;;;;3.58;1.80;;;;;;;23.39;44.07;98827.37;2096067;84;21187;-85
2022/06/23 08:07:51;;;;;;;1.70;1.60;;;;;;;23.45;44.22;98827.68;2091891;84;21130;-84
2022/06/23 08:12:53;;;;;;;1.62;1.52;;;;;;;23.68;44.11;98826.48;2070195;84;21161;-84
2022/06/23 08:13:53;;;;;;;1.77;1.57;;;;;;;23.84;44.26;98825.45;2081589;84;21098;-84
2022/06/23 08:16:54;;;;;;;1.87;1.55;;;;;;;23.79;42.24;98823.31;2091977;84;21074;-83
2022/06/23 08:19:56;;;;;;;2.22;1.47;;;;;;;23.73;41.44;98818.47;2074944;84;21039;-84
2022/06/23 08:23:01;;;;;;;2.30;1.40;;;;;;;23.78;40.62;98829.19;2070524;84;21444;-84
2022/06/23 08:26:02;;;;;;;2.37;1.50;;;;;;;23.63;41.11;98818.97;2078874;84;21061;-83
2022/06/23 08:29:03;;;;;;;4.53;1.40;;;;;;;23.80;41.04;98822.23;2101706;85;21105;-83
2022/06/23 08:32:03;;;;;;;1.80;1.70;;;;;;;23.62;38.11;98820.84;2095722;84;20994;-83
2022/06/23 08:35:04;;;;;;;3.70;1.52;;;;;;;23.63;40.06;98835.80;2095302;84;21051;-83
2022/06/23 08:38:05;;;;;;;1.75;1.62;;;;;;;23.51;40.22;98837.34;2101388;85;21086;-84
2022/06/23 08:41:06;;;;;;;1.70;1.35;;;;;;;23.67;41.06;98830.20;2085349;84;21498;-84
2022/06/23 08:44:07;;;;;;;1.05;1.05;;;;;;;23.65;39.84;98833.67;2097431;84;21046;-83
2022/06/23 08:47:08;;;;;;;15.58;2.45;;;;;;;23.48;39.92;98836.50;2099604;85;21087;-85
2022/06/23 08:50:08;;;;;;;2.08;1.22;;;;;;;23.30;40.73;98838.28;2071187;84;21160;-84
2022/06/23 08:53:09;;;;;;;2.47;1.50;;;;;;;23.23;40.95;98839.06;2070157;84;21093;-85
2022/06/23 08:56:10;;;;;;;2.55;1.60;;;;;;;23.14;40.63;98835.27;2084250;84;21406;-85
2022/06/23 08:59:11;;;;;;;1.52;1.42;;;;;;;23.27;41.56;98842.81;2095807;84;21062;-84
2022/06/23 09:02:11;;;;;;;1.72;1.62;;;;;;;23.56;40.91;98838.67;2100084;85;21043;-84
2022/06/23 09:05:12;;;;;;;2.37;1.30;;;;;;;23.89;40.66;98838.04;2100316;85;21058;-84
2022/06/23 09:08:15;;;;;;;3.62;1.72;;;;;;;24.14;39.78;98845.33;2100567;85;21549;-83
2022/06/23 09:11:18;;;;;;;3.00;1.25;;;;;;;24.35;39.74;98841.64;2097377;84;20970;-83
2022/06/23 09:14:20;;;;;;;1.37;1.20;;;;;;;24.38;39.24;98837.63;1953430;90;21076;-84
2022/06/23 09:17:20;;;;;;;1.37;1.22;;;;;;;24.34;38.36;98836.56;1942422;91;21579;-83
2022/06/23 09:20:21;;;;;;;1.47;1.30;;;;;;;24.25;37.43;98844.27;1953301;90;21172;-84
2022/06/23 09:23:22;;;;;;;1.30;1.30;;;;;;;24.20;38.21;98844.78;1961490;90;21127;-84
2022/06/23 09:26:23;;;;;;;1.67;1.52;;;;;;;24.20;38.02;98845.59;1964972;91;21171;-84
2022/06/23 09:29:23;;;;;;;1.30;1.20;;;;;;;24.19;37.99;98849.34;1963857;91;21045;-84
2022/06/23 09:32:24;;;;;;;1.50;1.40;;;;;;;24.01;38.35;98851.17;1959677;90;21076;-84
2022/06/23 09:35:25;;;;;;;2.75;1.55;;;;;;;23.95;38.51;98850.34;1964561;91;21671;-85
2022/06/23 09:38:25;;;;;;;1.77;1.40;;;;;;;24.01;39.19;98847.95;1958597;91;21139;-84
2022/06/23 09:41:26;;;;;;;5.97;1.57;;;;;;;23.98;38.37;98856.52;1947609;91;21185;-84
2022/06/23 09:44:27;;;;;;;7.53;1.65;;;;;;;23.97;38.38;98847.42;1952899;90;21088;-84
2022/06/23 09:47:27;;;;;;;3.62;1.80;;;;;;;24.08;38.16;98857.87;1943324;90;21077;-84
2022/06/23 09:50:28;;;;;;;4.75;2.17;;;;;;;23.94;39.46;98851.41;1957553;90;21103;-85
2022/06/23 09:53:29;;;;;;;1.57;1.47;;;;;;;23.87;40.43;98850.07;1964632;90;21180;-85
2022/06/23 09:56:30;;;;;;;2.12;1.70;;;;;;;23.88;40.23;98851.67;1949427;90;21651;-84
2022/06/23 09:59:30;;;;;;;2.58;1.20;;;;;;;23.84;38.78;98854.05;1963914;90;21123;-84
2022/06/23 10:02:31;;;;;;;2.47;1.52;;;;;;;23.79;38.49;98846.03;1963401;91;21068;-85
2022/06/23 10:05:32;;;;;;;1.72;1.47;;;;;;;23.78;38.94;98848.44;1963849;90;21124;-86
2022/06/23 10:08:33;;;;;;;2.45;1.82;;;;;;;23.81;39.14;98843.89;1951532;91;21148;-85
2022/06/23 10:11:33;;;;;;;3.72;1.57;;;;;;;23.93;39.65;98840.98;2038836;84;21125;-85
2022/06/23 10:14:34;;;;;;;1.60;1.50;;;;;;;23.90;37.93;98841.52;2082687;84;21145;-85
2022/06/23 10:17:35;;;;;;;1.60;1.50;;;;;;;24.00;39.12;98848.22;2096828;84;21081;-85
2022/06/23 10:20:38;;;;;;;2.55;1.30;;;;;;;24.20;39.85;98844.78;2100975;85;21028;-85
2022/06/23 10:23:38;;;;;;;1.37;1.27;;;;;;;24.30;39.34;98846.94;2095664;84;21383;-85
2022/06/23 10:26:39;;;;;;;2.72;1.40;;;;;;;24.23;38.34;98845.08;2099810;85;21054;-85
2022/06/23 10:29:39;;;;;;;1.40;1.30;;;;;;;24.24;39.00;98844.01;2103467;84;21080;-85
2022/06/23 10:32:40;;;;;;;1.70;1.60;;;;;;;24.40;38.04;98829.59;2098566;85;21065;-85
2022/06/23 10:35:41;;;;;;;2.25;1.55;;;;;;;24.52;38.12;98830.69;2088465;84;21053;-83
2022/06/23 10:38:42;;;;;;;1.70;1.60;;;;;;;24.59;38.38;98827.19;2078911;84;20975;-86
2022/06/23 10:41:42;;;;;;;2.12;1.70;;;;;;;24.74;38.45;98822.91;2096785;85;21108;-84
2022/06/23 10:44:43;;;;;;;1.40;1.22;;;;;;;24.88;37.37;98822.09;2092434;84;20983;-85
2022/06/23 10:47:44;;;;;;;1.47;1.45;;;;;;;24.90;37.35;98822.63;2090334;85;21098;-84
2022/06/23 10:50:45;;;;;;;1.02;1.02;;;;;;;25.02;37.85;98828.22;2083686;84;21031;-85
2022/06/23 10:53:45;;;;;;;2.00;1.70;;;;;;;25.17;37.94;98825.55;2100321;85;21015;-84
2022/06/23 10:56:46;;;;;;;1.47;1.27;;;;;;;25.28;37.56;98824.45;2074319;84;21529;-84
2022/06/23 10:59:47;;;;;;;1.45;1.37;;;;;;;25.39;37.30;98821.98;2071392;84;21015;-81
2022/06/23 11:02:48;;;;;;;1.65;1.12;;;;;;;25.44;37.55;98816.62;2099451;85;21046;-80
2022/06/23 11:05:48;;;;;;;11.43;7.45;;;;;;;25.53;37.44;98818.20;2093272;85;21580;-81
2022/06/23 11:08:49;;;;;;;2.22;2.12;;;;;;;25.60;37.90;98814.66;2098263;84;21011;-82
2022/06/23 11:11:52;;;;;;;1.75;1.22;;;;;;;25.66;37.85;98807.41;2078341;84;21098;-81
2022/06/23 11:14:52;;;;;;;2.83;2.62;;;;;;;25.68;36.35;98814.63;2098990;85;21621;-81
2022/06/23 11:17:53;;;;;;;1.32;1.27;;;;;;;25.61;36.98;98811.47;2069050;84;21022;-82
2022/06/23 11:20:54;;;;;;;1.65;1.40;;;;;;;25.49;36.92;98812.56;2088716;84;21077;-82
2022/06/23 11:23:54;;;;;;;2.92;1.50;;;;;;;25.46;36.36;98815.80;2097576;84;21073;-81
2022/06/23 11:26:55;;;;;;;1.70;1.60;;;;;;;25.33;35.63;98810.22;2069237;84;21022;-81
2022/06/23 11:29:56;;;;;;;2.17;1.60;;;;;;;25.21;36.16;98808.65;2072708;84;21057;-80
2022/06/23 11:32:57;;;;;;;4.65;1.67;;;;;;;25.13;35.56;98803.05;2073057;84;21581;-81
2022/06/23 11:35:57;;;;;;;2.30;1.32;;;;;;;25.13;36.61;98808.41;2072652;84;21139;-81
2022/06/23 11:38:58;;;;;;;2.67;1.22;;;;;;;25.26;36.62;98810.52;2075213;84;21070;-81
2022/06/23 11:41:59;;;;;;;2.62;1.30;;;;;;;25.30;36.12;98808.09;2091366;85;21015;-80
2022/06/23 11:45:03;;;;;;;3.98;1.42;;;;;;;25.38;36.38;98815.56;2089529;84;21531;-80
2022/06/23 11:48:04;;;;;;;1.42;1.25;;;;;;;25.57;36.12;98809.06;2077547;84;21068;-81
2022/06/23 11:51:04;;;;;;;1.35;1.30;;;;;;;25.70;35.64;98807.97;2078937;84;21062;-81
2022/06/23 11:54:07;;;;;;;1.32;1.32;;;;;;;25.72;35.12;98809.83;2069660;85;21644;-80
2022/06/23 11:57:20;;;;;;;;;;;;;;;;;;;;;
2022/06/23 12:00:15;;;;;;;2.43;1.37;;;;;;;25.60;35.56;98798.58;2065945;84;21082;-80
2022/06/23 12:03:15;;;;;;;2.72;1.95;;;;;;;25.57;35.36;98799.68;2090838;84;21105;-81
2022/06/23 12:06:16;;;;;;;3.15;1.67;;;;;;;25.63;35.61;98791.89;2102648;85;21125;-80
2022/06/23 12:09:19;;;;;;;1.62;1.52;;;;;;;25.71;36.02;98796.16;2085869;84;21069;-80
2022/06/23 12:12:19;;;;;;;4.03;1.27;;;;;;;25.70;33.63;98799.09;2070311;84;21022;-81
2022/06/23 12:15:20;;;;;;;1.98;1.30;;;;;;;25.41;33.59;98815.81;2068581;84;21569;-81
2022/06/23 12:18:21;;;;;;;1.95;1.45;;;;;;;25.33;34.59;98803.00;2078868;84;21181;-81
2022/06/23 12:21:22;;;;;;;2.30;1.20;;;;;;;25.42;34.36;98807.23;2085894;84;21051;-81
2022/06/23 12:24:22;;;;;;;2.95;1.95;;;;;;;25.55;35.01;98805.32;2070993;84;21576;-82
2022/06/23 12:27:23;;;;;;;1.77;1.40;;;;;;;25.82;35.27;98798.25;2081480;84;21090;-81
2022/06/23 12:30:24;;;;;;;2.12;1.32;;;;;;;26.08;34.63;98809.09;2100070;85;21070;-81
2022/06/23 12:33:25;;;;;;;1.40;1.30;;;;;;;26.23;34.61;98808.70;2090273;84;21625;-81
2022/06/23 12:36:25;;;;;;;2.27;1.47;;;;;;;26.23;34.41;98820.24;2085573;84;21050;-81
2022/06/23 12:39:26;;;;;;;1.42;1.17;;;;;;;26.07;35.17;98814.73;2072475;84;21562;-81
2022/06/23 12:42:28;;;;;;;1.45;1.35;;;;;;;25.87;35.93;98807.59;2088508;85;21054;-80
2022/06/23 12:45:28;;;;;;;2.70;1.90;;;;;;;25.79;36.15;98804.17;2077256;84;21591;-81
2022/06/23 12:48:29;;;;;;;1.45;1.30;;;;;;;25.64;36.63;98807.69;2090465;84;21011;-81
2022/06/23 12:51:30;;;;;;;1.50;1.50;;;;;;;25.67;36.55;98808.47;2072299;84;21007;-81
2022/06/23 12:54:30;;;;;;;2.15;1.65;;;;;;;25.75;36.53;98806.59;2081023;84;21605;-80
2022/06/23 12:57:31;;;;;;;1.35;1.30;;;;;;;25.86;36.45;98810.02;2076466;84;21058;-81
2022/06/23 13:00:32;;;;;;;3.62;2.10;;;;;;;25.81;34.65;98808.72;2086447;84;21018;-80
2022/06/23 13:03:32;;;;;;;2.62;1.65;;;;;;;25.73;35.77;98807.95;2068959;84;21053;-78
2022/06/23 13:06:33;;;;;;;1.50;1.40;;;;;;;25.85;35.67;98803.05;2068810;84;21006;-77
2022/06/23 13:09:34;;;;;;;2.95;2.52;;;;;;;26.03;35.73;98806.97;2081519;84;21081;-81
2022/06/23 13:12:36;;;;;;;2.35;1.32;;;;;;;26.05;36.08;98809.63;2075702;84;21152;-79
2022/06/23 13:15:39;;;;;;;1.70;1.60;;;;;;;26.13;36.09;98802.88;2081972;84;21649;-80
2022/06/23 13:18:39;;;;;;;2.98;2.50;;;;;;;26.21;35.74;98810.33;2080475;84;21197;-79
2022/06/23 13:21:40;;;;;;;7.72;1.87;;;;;;;26.28;35.98;98797.41;2090890;84;21030;-81
2022/06/23 13:24:41;;;;;;;2.35;1.60;;;;;;;26.27;34.92;98799.83;2101781;85;21027;-79
2022/06/23 13:27:42;;;;;;;2.08;1.80;;;;;;;26.04;35.22;98801.86;2083682;84;21011;-80
2022/06/23 13:30:42;;;;;;;1.37;1.37;;;;;;;26.00;36.17;98798.95;2092697;84;21174;-84
2022/06/23 13:33:43;;;;;;;4.67;2.25;;;;;;;26.00;36.36;98799.48;2087755;84;21002;-87
2022/06/23 13:36:46;;;;;;;2.77;2.00;;;;;;;25.70;36.79;98797.25;2081777;84;21081;-80
2022/06/23 13:39:46;;;;;;;1.65;1.55;;;;;;;25.60;37.08;98790.53;2099779;84;21078;-81
2022/06/23 13:42:47;;;;;;;8.73;2.30;;;;;;;25.65;37.45;98796.42;2092614;84;21546;-81
2022/06/23 13:45:48;;;;;;;3.50;1.95;;;;;;;25.37;37.40;98792.53;2100894;85;21039;-82
2022/06/23 13:48:49;;;;;;;2.47;1.80;;;;;;;25.11;38.01;98785.91;2077317;84;21101;-83
2022/06/23 13:51:49;;;;;;;1.80;1.70;;;;;;;25.08;38.17;98784.33;2073166;84;21086;-81
2022/06/23 13:54:50;;;;;;;9.08;2.83;;;;;;;25.19;37.41;98788.57;2099715;84;21593;-81
2022/06/23 13:57:51;;;;;;;1.50;1.40;;;;;;;25.23;38.41;98781.58;2080732;84;21094;-82
2022/06/23 14:00:54;;;;;;;1.60;1.50;;;;;;;25.34;37.80;98783.71;2068772;84;21062;-82
2022/06/23 14:03:56;;;;;;;2.08;1.87;;;;;;;25.40;38.04;98775.35;2056833;84;21597;-82
2022/06/23 14:06:56;;;;;;;2.22;2.00;;;;;;;25.46;38.20;98775.60;2097323;85;21089;-82
2022/06/23 14:09:57;;;;;;;1.80;1.70;;;;;;;25.46;38.52;98772.13;2094771;85;21071;-82
2022/06/23 14:12:58;;;;;;;1.72;1.62;;;;;;;25.41;38.55;98771.59;2080115;84;21046;-82